sensor_id;sensor_type;location;lat;lon;timestamp;P1;durP1;ratioP1;P2;durP2;ratioP2
29662;SDS011;16578;53.266;7.920;2022-08-14T00:01:14;5.65;;;4.82;;
29662;SDS011;16578;53.266;7.920;2022-08-14T00:03:39;6.90;;;5.80;;
29662;SDS011;16578;53.266;7.920;2022-08-14T00:06:05;8.75;;;5.30;;
29662;SDS011;16578;53.266;7.920;2022-08-14T00:08:30;6.18;;;5.63;;
29662;SDS011;16578;53.266;7.920;2022-08-14T00:10:57;5.72;;;5.22;;
29662;SDS011;16578;53.266;7.920;2022-08-14T00:13:23;6.00;;;5.40;;
29662;SDS011;16578;53.266;7.920;2022-08-14T00:15:53;5.68;;;5.18;;
29662;SDS011;16578;53.266;7.920;2022-08-14T00:18:21;5.35;;;4.95;;
29662;SDS011;16578;53.266;7.920;2022-08-14T00:20:48;5.35;;;4.85;;
29662;SDS011;16578;53.266;7.920;2022-08-14T00:23:14;7.93;;;5.00;;
29662;SDS011;16578;53.266;7.920;2022-08-14T00:25:41;5.30;;;4.80;;
29662;SDS011;16578;53.266;7.920;2022-08-14T00:28:09;5.97;;;5.35;;
29662;SDS011;16578;53.266;7.920;2022-08-14T00:33:02;7.80;;;4.97;;
29662;SDS011;16578;53.266;7.920;2022-08-14T00:35:28;7.07;;;5.10;;
29662;SDS011;16578;53.266;7.920;2022-08-14T00:37:55;6.03;;;5.43;;
29662;SDS011;16578;53.266;7.920;2022-08-14T00:40:20;5.35;;;4.93;;
29662;SDS011;16578;53.266;7.920;2022-08-14T00:42:46;5.95;;;5.35;;
29662;SDS011;16578;53.266;7.920;2022-08-14T00:45:12;6.40;;;5.35;;
29662;SDS011;16578;53.266;7.920;2022-08-14T00:47:39;5.72;;;5.10;;
29662;SDS011;16578;53.266;7.920;2022-08-14T00:50:09;6.47;;;4.90;;
29662;SDS011;16578;53.266;7.920;2022-08-14T00:52:37;9.77;;;5.15;;
29662;SDS011;16578;53.266;7.920;2022-08-14T00:55:04;5.78;;;5.13;;
29662;SDS011;16578;53.266;7.920;2022-08-14T00:57:33;6.03;;;4.88;;
29662;SDS011;16578;53.266;7.920;2022-08-14T00:59:59;5.90;;;5.00;;
29662;SDS011;16578;53.266;7.920;2022-08-14T01:02:26;5.60;;;4.70;;
29662;SDS011;16578;53.266;7.920;2022-08-14T01:04:56;6.80;;;5.22;;
29662;SDS011;16578;53.266;7.920;2022-08-14T01:07:25;9.13;;;5.38;;
29662;SDS011;16578;53.266;7.920;2022-08-14T01:09:57;6.40;;;5.40;;
29662;SDS011;16578;53.266;7.920;2022-08-14T01:12:29;6.82;;;4.68;;
29662;SDS011;16578;53.266;7.920;2022-08-14T01:14:57;6.32;;;5.28;;
29662;SDS011;16578;53.266;7.920;2022-08-14T01:17:26;5.97;;;5.32;;
29662;SDS011;16578;53.266;7.920;2022-08-14T01:20:13;5.30;;;4.80;;
29662;SDS011;16578;53.266;7.920;2022-08-14T01:22:57;5.72;;;5.18;;
29662;SDS011;16578;53.266;7.920;2022-08-14T01:25:23;5.93;;;5.32;;
29662;SDS011;16578;53.266;7.920;2022-08-14T01:27:49;5.50;;;5.00;;
29662;SDS011;16578;53.266;7.920;2022-08-14T01:30:15;5.78;;;5.10;;
29662;SDS011;16578;53.266;7.920;2022-08-14T01:32:46;5.68;;;5.18;;
29662;SDS011;16578;53.266;7.920;2022-08-14T01:35:11;6.13;;;5.53;;
29662;SDS011;16578;53.266;7.920;2022-08-14T01:37:37;5.30;;;4.80;;
29662;SDS011;16578;53.266;7.920;2022-08-14T01:40:02;6.32;;;5.18;;
29662;SDS011;16578;53.266;7.920;2022-08-14T01:42:28;6.45;;;5.32;;
29662;SDS011;16578;53.266;7.920;2022-08-14T01:44:54;5.57;;;5.03;;
29662;SDS011;16578;53.266;7.920;2022-08-14T01:47:21;6.03;;;5.38;;
29662;SDS011;16578;53.266;7.920;2022-08-14T01:49:48;11.27;;;4.97;;
29662;SDS011;16578;53.266;7.920;2022-08-14T01:52:15;7.88;;;4.95;;
29662;SDS011;16578;53.266;7.920;2022-08-14T01:54:42;6.22;;;5.63;;
29662;SDS011;16578;53.266;7.920;2022-08-14T01:57:07;5.25;;;4.70;;
29662;SDS011;16578;53.266;7.920;2022-08-14T01:59:35;6.13;;;4.77;;
29662;SDS011;16578;53.266;7.920;2022-08-14T02:02:04;6.05;;;5.35;;
29662;SDS011;16578;53.266;7.920;2022-08-14T02:04:36;5.75;;;5.00;;
29662;SDS011;16578;53.266;7.920;2022-08-14T02:07:03;6.93;;;5.00;;
29662;SDS011;16578;53.266;7.920;2022-08-14T02:09:29;6.00;;;4.97;;
29662;SDS011;16578;53.266;7.920;2022-08-14T02:11:59;5.28;;;4.75;;
29662;SDS011;16578;53.266;7.920;2022-08-14T02:14:26;5.47;;;4.97;;
29662;SDS011;16578;53.266;7.920;2022-08-14T02:16:52;5.50;;;4.90;;
29662;SDS011;16578;53.266;7.920;2022-08-14T02:19:20;8.43;;;5.20;;
29662;SDS011;16578;53.266;7.920;2022-08-14T02:21:48;5.85;;;5.25;;
29662;SDS011;16578;53.266;7.920;2022-08-14T02:24:18;5.85;;;5.35;;
29662;SDS011;16578;53.266;7.920;2022-08-14T02:26:46;5.03;;;4.53;;
29662;SDS011;16578;53.266;7.920;2022-08-14T02:29:14;6.80;;;5.00;;
29662;SDS011;16578;53.266;7.920;2022-08-14T02:31:43;6.72;;;5.25;;
29662;SDS011;16578;53.266;7.920;2022-08-14T02:34:14;6.57;;;4.88;;
29662;SDS011;16578;53.266;7.920;2022-08-14T02:36:43;5.55;;;5.05;;
29662;SDS011;16578;53.266;7.920;2022-08-14T02:39:12;7.47;;;4.95;;
29662;SDS011;16578;53.266;7.920;2022-08-14T02:41:39;5.22;;;4.72;;
29662;SDS011;16578;53.266;7.920;2022-08-14T02:44:07;5.20;;;4.68;;
29662;SDS011;16578;53.266;7.920;2022-08-14T02:46:34;7.15;;;5.07;;
29662;SDS011;16578;53.266;7.920;2022-08-14T02:49:01;5.13;;;4.63;;
29662;SDS011;16578;53.266;7.920;2022-08-14T02:51:28;8.43;;;5.03;;
29662;SDS011;16578;53.266;7.920;2022-08-14T02:53:54;6.78;;;4.82;;
29662;SDS011;16578;53.266;7.920;2022-08-14T02:56:20;5.60;;;5.05;;
29662;SDS011;16578;53.266;7.920;2022-08-14T02:58:47;6.10;;;5.07;;
29662;SDS011;16578;53.266;7.920;2022-08-14T03:01:15;5.40;;;4.90;;
29662;SDS011;16578;53.266;7.920;2022-08-14T03:03:42;6.03;;;4.63;;
29662;SDS011;16578;53.266;7.920;2022-08-14T03:06:09;11.95;;;5.30;;
29662;SDS011;16578;53.266;7.920;2022-08-14T03:08:37;5.78;;;5.18;;
29662;SDS011;16578;53.266;7.920;2022-08-14T03:11:04;6.63;;;4.68;;
29662;SDS011;16578;53.266;7.920;2022-08-14T03:13:33;5.28;;;4.78;;
29662;SDS011;16578;53.266;7.920;2022-08-14T03:16:08;7.13;;;5.03;;
29662;SDS011;16578;53.266;7.920;2022-08-14T03:18:38;5.88;;;5.00;;
29662;SDS011;16578;53.266;7.920;2022-08-14T03:21:06;5.68;;;5.13;;
29662;SDS011;16578;53.266;7.920;2022-08-14T03:23:33;7.28;;;5.65;;
29662;SDS011;16578;53.266;7.920;2022-08-14T03:26:00;6.68;;;5.35;;
29662;SDS011;16578;53.266;7.920;2022-08-14T03:28:28;8.77;;;4.65;;
29662;SDS011;16578;53.266;7.920;2022-08-14T03:30:54;5.40;;;4.93;;
29662;SDS011;16578;53.266;7.920;2022-08-14T03:33:23;5.72;;;5.15;;
29662;SDS011;16578;53.266;7.920;2022-08-14T03:35:49;5.18;;;4.78;;
29662;SDS011;16578;53.266;7.920;2022-08-14T03:38:15;5.35;;;4.90;;
29662;SDS011;16578;53.266;7.920;2022-08-14T03:40:43;5.70;;;5.10;;
29662;SDS011;16578;53.266;7.920;2022-08-14T03:43:10;12.13;;;5.03;;
29662;SDS011;16578;53.266;7.920;2022-08-14T03:45:36;5.70;;;4.93;;
29662;SDS011;16578;53.266;7.920;2022-08-14T03:48:08;5.95;;;5.03;;
29662;SDS011;16578;53.266;7.920;2022-08-14T03:50:43;5.25;;;4.78;;
29662;SDS011;16578;53.266;7.920;2022-08-14T03:53:10;7.18;;;5.35;;
29662;SDS011;16578;53.266;7.920;2022-08-14T03:55:37;6.30;;;5.20;;
29662;SDS011;16578;53.266;7.920;2022-08-14T03:58:04;5.63;;;5.13;;
29662;SDS011;16578;53.266;7.920;2022-08-14T04:00:30;6.03;;;4.82;;
29662;SDS011;16578;53.266;7.920;2022-08-14T04:02:55;5.68;;;4.75;;
29662;SDS011;16578;53.266;7.920;2022-08-14T04:05:21;5.43;;;4.72;;
29662;SDS011;16578;53.266;7.920;2022-08-14T04:07:47;6.03;;;4.82;;
29662;SDS011;16578;53.266;7.920;2022-08-14T04:10:12;6.22;;;4.97;;
29662;SDS011;16578;53.266;7.920;2022-08-14T04:12:38;6.07;;;4.63;;
29662;SDS011;16578;53.266;7.920;2022-08-14T04:15:04;5.22;;;4.30;;
29662;SDS011;16578;53.266;7.920;2022-08-14T04:17:30;6.78;;;4.85;;
29662;SDS011;16578;53.266;7.920;2022-08-14T04:19:57;6.07;;;5.10;;
29662;SDS011;16578;53.266;7.920;2022-08-14T04:22:32;6.20;;;4.78;;
29662;SDS011;16578;53.266;7.920;2022-08-14T04:24:58;5.40;;;4.60;;
29662;SDS011;16578;53.266;7.920;2022-08-14T04:27:25;4.75;;;4.35;;
29662;SDS011;16578;53.266;7.920;2022-08-14T04:29:51;5.53;;;4.97;;
29662;SDS011;16578;53.266;7.920;2022-08-14T04:32:18;5.28;;;4.75;;
29662;SDS011;16578;53.266;7.920;2022-08-14T04:37:12;5.88;;;4.80;;
29662;SDS011;16578;53.266;7.920;2022-08-14T04:39:56;5.57;;;5.07;;
29662;SDS011;16578;53.266;7.920;2022-08-14T04:42:40;5.90;;;4.72;;
29662;SDS011;16578;53.266;7.920;2022-08-14T04:45:25;5.38;;;4.88;;
29662;SDS011;16578;53.266;7.920;2022-08-14T04:48:05;6.35;;;4.50;;
29662;SDS011;16578;53.266;7.920;2022-08-14T04:50:47;6.78;;;4.70;;
29662;SDS011;16578;53.266;7.920;2022-08-14T04:53:15;5.70;;;5.13;;
29662;SDS011;16578;53.266;7.920;2022-08-14T04:55:47;5.72;;;5.10;;
29662;SDS011;16578;53.266;7.920;2022-08-14T04:58:14;5.72;;;5.22;;
29662;SDS011;16578;53.266;7.920;2022-08-14T05:00:41;6.70;;;5.60;;
29662;SDS011;16578;53.266;7.920;2022-08-14T05:03:13;5.82;;;5.25;;
29662;SDS011;16578;53.266;7.920;2022-08-14T05:05:38;5.70;;;5.13;;
29662;SDS011;16578;53.266;7.920;2022-08-14T05:08:05;15.35;;;5.25;;
29662;SDS011;16578;53.266;7.920;2022-08-14T05:10:33;5.38;;;4.88;;
29662;SDS011;16578;53.266;7.920;2022-08-14T05:13:03;7.03;;;5.30;;
29662;SDS011;16578;53.266;7.920;2022-08-14T05:15:29;6.70;;;5.47;;
29662;SDS011;16578;53.266;7.920;2022-08-14T05:17:56;6.18;;;5.15;;
29662;SDS011;16578;53.266;7.920;2022-08-14T05:20:21;7.40;;;5.45;;
29662;SDS011;16578;53.266;7.920;2022-08-14T05:22:48;7.32;;;5.43;;
29662;SDS011;16578;53.266;7.920;2022-08-14T05:25:13;5.97;;;5.38;;
29662;SDS011;16578;53.266;7.920;2022-08-14T05:27:39;6.50;;;5.50;;
29662;SDS011;16578;53.266;7.920;2022-08-14T05:30:05;6.18;;;5.05;;
29662;SDS011;16578;53.266;7.920;2022-08-14T05:32:31;5.82;;;5.20;;
29662;SDS011;16578;53.266;7.920;2022-08-14T05:34:57;6.70;;;5.13;;
29662;SDS011;16578;53.266;7.920;2022-08-14T05:37:23;5.90;;;5.13;;
29662;SDS011;16578;53.266;7.920;2022-08-14T05:39:50;6.85;;;5.47;;
29662;SDS011;16578;53.266;7.920;2022-08-14T05:42:15;7.53;;;5.88;;
29662;SDS011;16578;53.266;7.920;2022-08-14T05:44:41;7.97;;;5.43;;
29662;SDS011;16578;53.266;7.920;2022-08-14T05:47:07;6.28;;;5.50;;
29662;SDS011;16578;53.266;7.920;2022-08-14T05:49:32;5.70;;;4.95;;
29662;SDS011;16578;53.266;7.920;2022-08-14T05:51:58;5.18;;;4.70;;
29662;SDS011;16578;53.266;7.920;2022-08-14T05:54:24;6.15;;;5.55;;
29662;SDS011;16578;53.266;7.920;2022-08-14T05:56:49;6.70;;;5.20;;
29662;SDS011;16578;53.266;7.920;2022-08-14T05:59:15;9.52;;;5.65;;
29662;SDS011;16578;53.266;7.920;2022-08-14T06:01:40;5.72;;;5.07;;
29662;SDS011;16578;53.266;7.920;2022-08-14T06:04:06;6.07;;;5.57;;
29662;SDS011;16578;53.266;7.920;2022-08-14T06:06:31;6.50;;;5.78;;
29662;SDS011;16578;53.266;7.920;2022-08-14T06:08:57;7.07;;;6.35;;
29662;SDS011;16578;53.266;7.920;2022-08-14T06:11:22;8.90;;;5.60;;
29662;SDS011;16578;53.266;7.920;2022-08-14T06:13:48;7.25;;;5.00;;
29662;SDS011;16578;53.266;7.920;2022-08-14T06:16:14;9.88;;;5.45;;
29662;SDS011;16578;53.266;7.920;2022-08-14T06:18:47;6.85;;;5.85;;
29662;SDS011;16578;53.266;7.920;2022-08-14T06:21:13;6.97;;;5.05;;
29662;SDS011;16578;53.266;7.920;2022-08-14T06:23:39;6.00;;;5.50;;
29662;SDS011;16578;53.266;7.920;2022-08-14T06:26:05;7.00;;;5.43;;
29662;SDS011;16578;53.266;7.920;2022-08-14T06:28:30;6.00;;;5.40;;
29662;SDS011;16578;53.266;7.920;2022-08-14T06:30:56;6.18;;;5.63;;
29662;SDS011;16578;53.266;7.920;2022-08-14T06:33:22;6.95;;;5.40;;
29662;SDS011;16578;53.266;7.920;2022-08-14T06:35:49;6.38;;;5.78;;
29662;SDS011;16578;53.266;7.920;2022-08-14T06:38:16;8.55;;;5.93;;
29662;SDS011;16578;53.266;7.920;2022-08-14T06:40:44;7.40;;;5.68;;
29662;SDS011;16578;53.266;7.920;2022-08-14T06:43:13;9.98;;;5.45;;
29662;SDS011;16578;53.266;7.920;2022-08-14T06:45:41;5.93;;;5.20;;
29662;SDS011;16578;53.266;7.920;2022-08-14T06:50:45;7.25;;;5.43;;
29662;SDS011;16578;53.266;7.920;2022-08-14T06:53:11;5.93;;;5.28;;
29662;SDS011;16578;53.266;7.920;2022-08-14T06:55:39;8.77;;;6.00;;
29662;SDS011;16578;53.266;7.920;2022-08-14T06:58:09;6.33;;;5.37;;
29662;SDS011;16578;53.266;7.920;2022-08-14T07:00:36;5.68;;;5.18;;
29662;SDS011;16578;53.266;7.920;2022-08-14T07:03:01;6.18;;;5.57;;
29662;SDS011;16578;53.266;7.920;2022-08-14T07:05:45;6.90;;;5.32;;
29662;SDS011;16578;53.266;7.920;2022-08-14T07:10:40;8.15;;;5.32;;
29662;SDS011;16578;53.266;7.920;2022-08-14T07:13:08;6.65;;;5.07;;
29662;SDS011;16578;53.266;7.920;2022-08-14T07:15:34;7.03;;;6.05;;
29662;SDS011;16578;53.266;7.920;2022-08-14T07:18:00;6.20;;;5.50;;
29662;SDS011;16578;53.266;7.920;2022-08-14T07:20:27;7.25;;;6.13;;
29662;SDS011;16578;53.266;7.920;2022-08-14T07:22:54;8.00;;;6.65;;
29662;SDS011;16578;53.266;7.920;2022-08-14T07:25:26;9.15;;;6.68;;
29662;SDS011;16578;53.266;7.920;2022-08-14T07:27:53;6.30;;;5.72;;
29662;SDS011;16578;53.266;7.920;2022-08-14T07:30:19;6.93;;;6.22;;
29662;SDS011;16578;53.266;7.920;2022-08-14T07:32:45;6.50;;;5.88;;
29662;SDS011;16578;53.266;7.920;2022-08-14T07:35:10;7.03;;;6.30;;
29662;SDS011;16578;53.266;7.920;2022-08-14T07:37:36;6.70;;;5.85;;
29662;SDS011;16578;53.266;7.920;2022-08-14T07:40:02;6.25;;;5.65;;
29662;SDS011;16578;53.266;7.920;2022-08-14T07:42:29;7.55;;;6.40;;
29662;SDS011;16578;53.266;7.920;2022-08-14T07:44:56;5.68;;;5.18;;
29662;SDS011;16578;53.266;7.920;2022-08-14T07:47:22;8.00;;;6.55;;
29662;SDS011;16578;53.266;7.920;2022-08-14T07:50:30;6.93;;;6.32;;
29662;SDS011;16578;53.266;7.920;2022-08-14T07:52:41;6.72;;;6.00;;
29662;SDS011;16578;53.266;7.920;2022-08-14T07:55:08;7.30;;;6.15;;
29662;SDS011;16578;53.266;7.920;2022-08-14T07:57:35;8.05;;;6.47;;
29662;SDS011;16578;53.266;7.920;2022-08-14T08:00:04;6.57;;;6.05;;
29662;SDS011;16578;53.266;7.920;2022-08-14T08:02:35;6.68;;;6.07;;
29662;SDS011;16578;53.266;7.920;2022-08-14T08:05:05;6.57;;;5.97;;
29662;SDS011;16578;53.266;7.920;2022-08-14T08:07:32;7.83;;;6.77;;
29662;SDS011;16578;53.266;7.920;2022-08-14T08:09:59;7.97;;;6.32;;
29662;SDS011;16578;53.266;7.920;2022-08-14T08:12:51;7.70;;;7.00;;
29662;SDS011;16578;53.266;7.920;2022-08-14T08:15:18;6.55;;;6.03;;
29662;SDS011;16578;53.266;7.920;2022-08-14T08:17:45;6.90;;;5.90;;
29662;SDS011;16578;53.266;7.920;2022-08-14T08:20:15;9.18;;;6.18;;
29662;SDS011;16578;53.266;7.920;2022-08-14T08:22:48;7.03;;;6.32;;
29662;SDS011;16578;53.266;7.920;2022-08-14T08:25:16;7.15;;;5.40;;
29662;SDS011;16578;53.266;7.920;2022-08-14T08:27:52;7.97;;;6.72;;
29662;SDS011;16578;53.266;7.920;2022-08-14T08:30:22;7.53;;;6.05;;
29662;SDS011;16578;53.266;7.920;2022-08-14T08:32:50;6.28;;;5.68;;
29662;SDS011;16578;53.266;7.920;2022-08-14T08:37:45;8.43;;;6.07;;
29662;SDS011;16578;53.266;7.920;2022-08-14T08:40:20;7.35;;;6.40;;
29662;SDS011;16578;53.266;7.920;2022-08-14T08:42:50;6.90;;;6.32;;
29662;SDS011;16578;53.266;7.920;2022-08-14T08:45:16;7.65;;;6.78;;
29662;SDS011;16578;53.266;7.920;2022-08-14T08:47:42;6.82;;;6.22;;
29662;SDS011;16578;53.266;7.920;2022-08-14T08:50:19;6.95;;;6.25;;
29662;SDS011;16578;53.266;7.920;2022-08-14T08:52:57;7.83;;;6.53;;
29662;SDS011;16578;53.266;7.920;2022-08-14T08:55:33;7.35;;;6.50;;
29662;SDS011;16578;53.266;7.920;2022-08-14T08:58:10;6.20;;;5.70;;
29662;SDS011;16578;53.266;7.920;2022-08-14T09:00:38;6.68;;;5.72;;
29662;SDS011;16578;53.266;7.920;2022-08-14T09:05:35;6.30;;;5.75;;
29662;SDS011;16578;53.266;7.920;2022-08-14T09:08:35;7.47;;;6.07;;
29662;SDS011;16578;53.266;7.920;2022-08-14T09:10:55;8.82;;;6.30;;
29662;SDS011;16578;53.266;7.920;2022-08-14T09:13:22;7.13;;;6.40;;
29662;SDS011;16578;53.266;7.920;2022-08-14T09:15:50;6.40;;;5.80;;
29662;SDS011;16578;53.266;7.920;2022-08-14T09:18:17;5.97;;;5.47;;
29662;SDS011;16578;53.266;7.920;2022-08-14T09:20:45;7.32;;;6.30;;
29662;SDS011;16578;53.266;7.920;2022-08-14T09:23:12;7.13;;;6.15;;
29662;SDS011;16578;53.266;7.920;2022-08-14T09:25:39;6.10;;;5.60;;
29662;SDS011;16578;53.266;7.920;2022-08-14T09:28:08;6.50;;;5.85;;
29662;SDS011;16578;53.266;7.920;2022-08-14T09:30:36;6.80;;;6.20;;
29662;SDS011;16578;53.266;7.920;2022-08-14T09:38:45;7.20;;;5.93;;
29662;SDS011;16578;53.266;7.920;2022-08-14T09:41:29;6.65;;;5.95;;
29662;SDS011;16578;53.266;7.920;2022-08-14T09:44:19;7.13;;;6.35;;
29662;SDS011;16578;53.266;7.920;2022-08-14T09:47:07;7.20;;;6.13;;
29662;SDS011;16578;53.266;7.920;2022-08-14T09:49:35;6.70;;;6.10;;
29662;SDS011;16578;53.266;7.920;2022-08-14T09:52:05;6.03;;;5.50;;
29662;SDS011;16578;53.266;7.920;2022-08-14T09:54:40;6.90;;;6.30;;
29662;SDS011;16578;53.266;7.920;2022-08-14T09:57:08;6.43;;;5.82;;
29662;SDS011;16578;53.266;7.920;2022-08-14T09:59:38;6.43;;;5.88;;
29662;SDS011;16578;53.266;7.920;2022-08-14T10:02:17;6.60;;;5.90;;
29662;SDS011;16578;53.266;7.920;2022-08-14T10:04:45;7.03;;;6.03;;
29662;SDS011;16578;53.266;7.920;2022-08-14T10:07:28;6.55;;;5.57;;
29662;SDS011;16578;53.266;7.920;2022-08-14T10:09:55;6.15;;;5.57;;
29662;SDS011;16578;53.266;7.920;2022-08-14T10:12:21;6.25;;;5.75;;
29662;SDS011;16578;53.266;7.920;2022-08-14T10:14:46;6.90;;;6.22;;
29662;SDS011;16578;53.266;7.920;2022-08-14T10:17:20;6.50;;;5.85;;
29662;SDS011;16578;53.266;7.920;2022-08-14T10:19:50;6.75;;;5.90;;
29662;SDS011;16578;53.266;7.920;2022-08-14T10:22:22;6.15;;;5.57;;
29662;SDS011;16578;53.266;7.920;2022-08-14T10:24:49;7.13;;;5.90;;
29662;SDS011;16578;53.266;7.920;2022-08-14T10:27:15;6.25;;;5.63;;
29662;SDS011;16578;53.266;7.920;2022-08-14T10:29:46;7.95;;;5.85;;
29662;SDS011;16578;53.266;7.920;2022-08-14T10:32:21;6.05;;;5.55;;
29662;SDS011;16578;53.266;7.920;2022-08-14T10:34:47;5.97;;;5.43;;
29662;SDS011;16578;53.266;7.920;2022-08-14T10:37:14;7.25;;;5.70;;
29662;SDS011;16578;53.266;7.920;2022-08-14T10:39:45;5.95;;;5.45;;
29662;SDS011;16578;53.266;7.920;2022-08-14T10:42:33;6.72;;;5.22;;
29662;SDS011;16578;53.266;7.920;2022-08-14T10:45:00;6.25;;;5.70;;
29662;SDS011;16578;53.266;7.920;2022-08-14T10:47:32;8.40;;;5.28;;
29662;SDS011;16578;53.266;7.920;2022-08-14T10:50:00;6.78;;;5.38;;
29662;SDS011;16578;53.266;7.920;2022-08-14T10:52:28;6.65;;;5.63;;
29662;SDS011;16578;53.266;7.920;2022-08-14T10:55:13;6.18;;;5.38;;
29662;SDS011;16578;53.266;7.920;2022-08-14T10:57:46;5.97;;;5.38;;
29662;SDS011;16578;53.266;7.920;2022-08-14T11:00:13;6.18;;;5.63;;
29662;SDS011;16578;53.266;7.920;2022-08-14T11:02:40;6.25;;;5.65;;
29662;SDS011;16578;53.266;7.920;2022-08-14T11:10:22;6.28;;;5.68;;
29662;SDS011;16578;53.266;7.920;2022-08-14T11:12:51;7.93;;;6.00;;
29662;SDS011;16578;53.266;7.920;2022-08-14T11:15:22;7.25;;;6.30;;
29662;SDS011;16578;53.266;7.920;2022-08-14T11:17:50;6.68;;;6.07;;
29662;SDS011;16578;53.266;7.920;2022-08-14T11:20:17;5.97;;;5.47;;
29662;SDS011;16578;53.266;7.920;2022-08-14T11:22:50;6.60;;;5.38;;
29662;SDS011;16578;53.266;7.920;2022-08-14T11:25:21;8.20;;;6.03;;
29662;SDS011;16578;53.266;7.920;2022-08-14T11:27:49;6.32;;;5.72;;
29662;SDS011;16578;53.266;7.920;2022-08-14T11:30:20;6.82;;;6.10;;
29662;SDS011;16578;53.266;7.920;2022-08-14T11:32:48;7.15;;;5.82;;
29662;SDS011;16578;53.266;7.920;2022-08-14T11:35:19;6.10;;;5.57;;
29662;SDS011;16578;53.266;7.920;2022-08-14T11:40:16;11.93;;;6.18;;
29662;SDS011;16578;53.266;7.920;2022-08-14T11:42:44;6.55;;;5.60;;
29662;SDS011;16578;53.266;7.920;2022-08-14T11:45:11;5.95;;;5.45;;
29662;SDS011;16578;53.266;7.920;2022-08-14T11:47:37;8.05;;;6.20;;
29662;SDS011;16578;53.266;7.920;2022-08-14T11:52:38;6.32;;;5.57;;
29662;SDS011;16578;53.266;7.920;2022-08-14T11:55:06;6.50;;;5.97;;
29662;SDS011;16578;53.266;7.920;2022-08-14T11:57:33;6.47;;;5.97;;
29662;SDS011;16578;53.266;7.920;2022-08-14T12:00:05;6.60;;;5.97;;
29662;SDS011;16578;53.266;7.920;2022-08-14T12:02:53;6.80;;;6.20;;
29662;SDS011;16578;53.266;7.920;2022-08-14T12:05:28;6.57;;;5.97;;
29662;SDS011;16578;53.266;7.920;2022-08-14T12:07:56;7.88;;;5.95;;
29662;SDS011;16578;53.266;7.920;2022-08-14T12:10:25;6.60;;;6.00;;
29662;SDS011;16578;53.266;7.920;2022-08-14T12:12:51;7.07;;;6.32;;
29662;SDS011;16578;53.266;7.920;2022-08-14T12:15:30;6.95;;;6.25;;
29662;SDS011;16578;53.266;7.920;2022-08-14T12:18:02;9.90;;;5.88;;
29662;SDS011;16578;53.266;7.920;2022-08-14T12:20:31;7.72;;;6.20;;
29662;SDS011;16578;53.266;7.920;2022-08-14T12:23:06;6.68;;;6.07;;
29662;SDS011;16578;53.266;7.920;2022-08-14T12:25:43;6.53;;;5.90;;
29662;SDS011;16578;53.266;7.920;2022-08-14T12:28:11;6.15;;;5.50;;
29662;SDS011;16578;53.266;7.920;2022-08-14T12:30:40;6.78;;;6.13;;
29662;SDS011;16578;53.266;7.920;2022-08-14T12:35:46;6.88;;;5.72;;
29662;SDS011;16578;53.266;7.920;2022-08-14T12:38:14;6.65;;;6.05;;
29662;SDS011;16578;53.266;7.920;2022-08-14T12:40:51;6.15;;;5.65;;
29662;SDS011;16578;53.266;7.920;2022-08-14T12:43:18;8.43;;;6.32;;
29662;SDS011;16578;53.266;7.920;2022-08-14T12:45:46;11.45;;;5.70;;
29662;SDS011;16578;53.266;7.920;2022-08-14T12:48:16;6.18;;;5.57;;
29662;SDS011;16578;53.266;7.920;2022-08-14T12:50:43;6.70;;;6.00;;
29662;SDS011;16578;53.266;7.920;2022-08-14T12:53:10;5.72;;;5.22;;
29662;SDS011;16578;53.266;7.920;2022-08-14T12:55:37;7.45;;;6.00;;
29662;SDS011;16578;53.266;7.920;2022-08-14T12:58:04;6.13;;;5.63;;
29662;SDS011;16578;53.266;7.920;2022-08-14T13:00:46;6.00;;;5.20;;
29662;SDS011;16578;53.266;7.920;2022-08-14T13:03:26;6.35;;;5.75;;
29662;SDS011;16578;53.266;7.920;2022-08-14T13:05:53;6.65;;;5.47;;
29662;SDS011;16578;53.266;7.920;2022-08-14T13:08:20;5.93;;;5.43;;
29662;SDS011;16578;53.266;7.920;2022-08-14T13:10:47;6.35;;;5.75;;
29662;SDS011;16578;53.266;7.920;2022-08-14T13:13:17;5.93;;;5.43;;
29662;SDS011;16578;53.266;7.920;2022-08-14T13:15:44;6.40;;;5.80;;
29662;SDS011;16578;53.266;7.920;2022-08-14T13:18:12;7.70;;;5.53;;
29662;SDS011;16578;53.266;7.920;2022-08-14T13:20:39;7.30;;;5.47;;
29662;SDS011;16578;53.266;7.920;2022-08-14T13:23:05;7.93;;;5.50;;
29662;SDS011;16578;53.266;7.920;2022-08-14T13:25:33;6.07;;;5.47;;
29662;SDS011;16578;53.266;7.920;2022-08-14T13:28:02;6.68;;;4.90;;
29662;SDS011;16578;53.266;7.920;2022-08-14T13:30:28;5.63;;;5.13;;
29662;SDS011;16578;53.266;7.920;2022-08-14T13:32:57;6.60;;;5.70;;
29662;SDS011;16578;53.266;7.920;2022-08-14T13:35:24;5.45;;;5.05;;
29662;SDS011;16578;53.266;7.920;2022-08-14T13:37:52;7.20;;;5.25;;
29662;SDS011;16578;53.266;7.920;2022-08-14T13:40:18;5.68;;;5.18;;
29662;SDS011;16578;53.266;7.920;2022-08-14T13:42:47;7.32;;;5.68;;
29662;SDS011;16578;53.266;7.920;2022-08-14T13:45:15;10.10;;;5.63;;
29662;SDS011;16578;53.266;7.920;2022-08-14T13:47:41;5.80;;;5.32;;
29662;SDS011;16578;53.266;7.920;2022-08-14T13:50:10;6.03;;;5.47;;
29662;SDS011;16578;53.266;7.920;2022-08-14T13:52:39;6.40;;;5.13;;
29662;SDS011;16578;53.266;7.920;2022-08-14T13:55:10;6.05;;;5.43;;
29662;SDS011;16578;53.266;7.920;2022-08-14T13:57:38;5.95;;;5.13;;
29662;SDS011;16578;53.266;7.920;2022-08-14T14:00:08;5.57;;;5.05;;
29662;SDS011;16578;53.266;7.920;2022-08-14T14:02:37;6.20;;;5.60;;
29662;SDS011;16578;53.266;7.920;2022-08-14T14:05:05;10.57;;;5.18;;
29662;SDS011;16578;53.266;7.920;2022-08-14T14:07:32;6.22;;;5.60;;
29662;SDS011;16578;53.266;7.920;2022-08-14T14:10:00;6.30;;;5.55;;
29662;SDS011;16578;53.266;7.920;2022-08-14T14:12:27;5.70;;;5.20;;
29662;SDS011;16578;53.266;7.920;2022-08-14T14:14:54;6.85;;;5.38;;
29662;SDS011;16578;53.266;7.920;2022-08-14T14:17:21;6.72;;;5.20;;
29662;SDS011;16578;53.266;7.920;2022-08-14T14:19:49;6.33;;;5.23;;
29662;SDS011;16578;53.266;7.920;2022-08-14T14:22:16;5.68;;;5.00;;
29662;SDS011;16578;53.266;7.920;2022-08-14T14:24:42;5.93;;;5.30;;
29662;SDS011;16578;53.266;7.920;2022-08-14T14:27:10;6.07;;;5.25;;
29662;SDS011;16578;53.266;7.920;2022-08-14T14:32:10;4.80;;;4.32;;
29662;SDS011;16578;53.266;7.920;2022-08-14T14:34:36;5.63;;;4.50;;
29662;SDS011;16578;53.266;7.920;2022-08-14T14:37:05;6.13;;;5.10;;
29662;SDS011;16578;53.266;7.920;2022-08-14T14:39:33;5.28;;;4.70;;
29662;SDS011;16578;53.266;7.920;2022-08-14T14:41:59;5.28;;;4.82;;
29662;SDS011;16578;53.266;7.920;2022-08-14T14:44:32;5.97;;;5.47;;
29662;SDS011;16578;53.266;7.920;2022-08-14T14:47:05;9.77;;;5.65;;
29662;SDS011;16578;53.266;7.920;2022-08-14T14:49:32;7.20;;;5.32;;
29662;SDS011;16578;53.266;7.920;2022-08-14T14:51:58;5.82;;;5.32;;
29662;SDS011;16578;53.266;7.920;2022-08-14T14:54:24;6.72;;;5.78;;
29662;SDS011;16578;53.266;7.920;2022-08-14T14:56:50;5.63;;;5.13;;
29662;SDS011;16578;53.266;7.920;2022-08-14T14:59:18;6.50;;;5.90;;
29662;SDS011;16578;53.266;7.920;2022-08-14T15:01:46;7.50;;;6.15;;
29662;SDS011;16578;53.266;7.920;2022-08-14T15:04:13;5.55;;;5.05;;
29662;SDS011;16578;53.266;7.920;2022-08-14T15:06:39;5.90;;;5.38;;
29662;SDS011;16578;53.266;7.920;2022-08-14T15:09:06;7.80;;;5.68;;
29662;SDS011;16578;53.266;7.920;2022-08-14T15:11:32;7.32;;;5.60;;
29662;SDS011;16578;53.266;7.920;2022-08-14T15:13:59;6.25;;;5.65;;
29662;SDS011;16578;53.266;7.920;2022-08-14T15:16:25;6.55;;;5.55;;
29662;SDS011;16578;53.266;7.920;2022-08-14T15:18:52;5.60;;;5.10;;
29662;SDS011;16578;53.266;7.920;2022-08-14T15:21:19;6.20;;;5.65;;
29662;SDS011;16578;53.266;7.920;2022-08-14T15:23:44;7.45;;;6.00;;
29662;SDS011;16578;53.266;7.920;2022-08-14T15:26:12;6.43;;;5.57;;
29662;SDS011;16578;53.266;7.920;2022-08-14T15:28:39;6.45;;;5.32;;
29662;SDS011;16578;53.266;7.920;2022-08-14T15:31:05;6.60;;;5.72;;
29662;SDS011;16578;53.266;7.920;2022-08-14T15:33:31;6.38;;;5.65;;